Time;durP1;ratioP1;P1;durP2;ratioP2;P2;SDS_P1;SDS_P2;PMS_P1;PMS_P2;Temp;Humidity;BMP_temperature;BMP_pressure;BME280_temperature;BME280_humidity;BME280_pressure;Samples;Min_cycle;Max_cycle;Signal;HPM_P1;HPM_P2
2023/09/13 00:02:23;;;;;;;1999.90;999.90;;;;;;;19.59;100.00;101253.81;10456968;28;20057;-67
2023/09/13 00:07:25;;;;;;;1999.90;999.90;;;;;;;19.52;100.00;101252.66;10458203;28;20052;-67
2023/09/13 00:12:27;;;;;;;1999.90;999.90;;;;;;;19.35;100.00;101246.19;10457452;28;20528;-67
2023/09/13 00:17:30;;;;;;;1999.90;999.90;;;;;;;19.47;100.00;101248.59;10457800;28;20049;-67
2023/09/13 00:22:32;;;;;;;1999.90;999.90;;;;;;;19.46;100.00;101240.78;10457782;28;20052;-67
2023/09/13 00:27:35;;;;;;;1999.90;999.90;;;;;;;19.38;100.00;101237.94;10455689;28;20052;-67
2023/09/13 00:32:37;;;;;;;1999.90;999.90;;;;;;;19.22;100.00;101239.31;10456305;28;20063;-67
2023/09/13 00:37:40;;;;;;;1999.90;999.90;;;;;;;19.26;100.00;101231.91;10456552;28;20045;-67
2023/09/13 00:42:42;;;;;;;1999.90;999.90;;;;;;;19.19;100.00;101250.19;10457169;28;20080;-66
2023/09/13 00:47:44;;;;;;;1999.90;999.90;;;;;;;19.24;100.00;101245.31;10456983;28;20131;-66
2023/09/13 00:52:47;;;;;;;1999.90;999.90;;;;;;;19.23;100.00;101240.13;10455753;28;20053;-66
2023/09/13 00:57:50;;;;;;;1999.90;999.90;;;;;;;19.00;100.00;101239.50;10455598;28;20048;-67
2023/09/13 01:02:53;;;;;;;1999.90;999.90;;;;;;;19.15;100.00;101250.56;10455396;28;20057;-67
2023/09/13 01:07:55;;;;;;;1999.90;999.90;;;;;;;19.00;100.00;101252.75;10440031;28;20045;-66
2023/09/13 01:12:58;;;;;;;1999.90;999.90;;;;;;;18.96;100.00;101254.81;10465106;28;20052;-66
2023/09/13 01:18:03;;;;;;;1999.90;999.90;;;;;;;19.00;100.00;101256.25;10463047;28;20508;-67
2023/09/13 01:23:43;;;;;;;1999.90;999.90;;;;;;;19.03;100.00;101249.81;10464655;28;20072;-66
2023/09/13 01:28:51;;;;;;;1999.90;999.90;;;;;;;19.04;100.00;101264.78;10463811;28;20408;-66
2023/09/13 01:33:53;;;;;;;1999.90;999.90;;;;;;;19.14;100.00;101260.34;10462457;28;20080;-67
2023/09/13 01:38:56;;;;;;;1999.90;999.90;;;;;;;19.11;100.00;101250.00;10462835;28;20052;-67
2023/09/13 01:43:59;;;;;;;1999.90;999.90;;;;;;;19.04;100.00;101257.66;10463246;28;20190;-66
2023/09/13 01:49:02;;;;;;;1999.90;999.90;;;;;;;19.07;100.00;101265.34;10463085;28;20572;-66
2023/09/13 01:54:05;;;;;;;1999.90;999.90;;;;;;;19.12;100.00;101270.28;10462866;28;20489;-66
2023/09/13 01:59:07;;;;;;;1999.90;999.90;;;;;;;19.14;100.00;101268.31;10462025;28;20051;-66
2023/09/13 02:04:10;;;;;;;1999.90;999.90;;;;;;;19.10;100.00;101265.09;10462292;28;20063;-67
2023/09/13 02:09:12;;;;;;;1999.90;999.90;;;;;;;19.08;100.00;101285.63;10462267;28;20535;-67
2023/09/13 02:14:14;;;;;;;1999.90;999.90;;;;;;;19.16;100.00;101274.31;10462715;28;20128;-67
2023/09/13 02:19:17;;;;;;;1999.90;999.90;;;;;;;19.12;100.00;101283.53;10461316;28;20045;-66
2023/09/13 02:24:19;;;;;;;1999.90;999.90;;;;;;;19.10;100.00;101285.50;10461445;28;20417;-66
2023/09/13 02:29:22;;;;;;;1999.90;999.90;;;;;;;18.99;100.00;101282.91;10462332;28;20051;-66
2023/09/13 02:34:25;;;;;;;1999.90;999.90;;;;;;;19.12;100.00;101284.38;10460154;28;20448;-66
2023/09/13 02:39:38;;;;;;;1999.90;999.90;;;;;;;19.15;100.00;101279.75;10443371;28;20482;-66
2023/09/13 02:44:40;;;;;;;1999.90;999.90;;;;;;;19.11;100.00;101280.06;10443913;28;20053;-66
2023/09/13 02:49:43;;;;;;;1999.90;999.90;;;;;;;19.15;100.00;101277.09;10459620;28;20063;-65
2023/09/13 02:54:45;;;;;;;1999.90;999.90;;;;;;;19.28;100.00;101275.94;10461219;28;20057;-66
2023/09/13 02:59:47;;;;;;;1999.90;999.90;;;;;;;19.05;100.00;101291.19;10460910;28;20041;-65
2023/09/13 03:04:53;;;;;;;1999.90;999.90;;;;;;;19.12;100.00;101296.81;10459983;28;20520;-66
2023/09/13 03:09:57;;;;;;;1999.90;999.90;;;;;;;19.04;100.00;101299.28;10459447;28;20055;-66
2023/09/13 03:15:00;;;;;;;1999.90;999.90;;;;;;;19.10;100.00;101302.25;10459758;28;20044;-66
2023/09/13 03:20:02;;;;;;;1999.90;999.90;;;;;;;19.18;100.00;101293.63;10459516;28;20155;-66
2023/09/13 03:25:05;;;;;;;1999.90;999.90;;;;;;;19.11;100.00;101282.72;10459314;28;20057;-67
2023/09/13 03:30:08;;;;;;;1999.90;999.90;;;;;;;19.09;100.00;101287.28;10459724;28;20063;-67
2023/09/13 03:35:11;;;;;;;1999.90;999.90;;;;;;;18.91;100.00;101288.84;10458582;28;20124;-67
2023/09/13 03:40:13;;;;;;;1999.90;999.90;;;;;;;19.01;100.00;101304.84;10459292;28;20128;-67
2023/09/13 03:45:16;;;;;;;1999.90;999.90;;;;;;;19.11;100.00;101300.41;10457964;28;20048;-67
2023/09/13 03:50:18;;;;;;;1999.90;999.90;;;;;;;19.10;100.00;101291.63;10458289;28;20128;-66
2023/09/13 03:55:21;;;;;;;1999.90;999.90;;;;;;;19.12;100.00;101288.84;10458781;28;20123;-66
2023/09/13 04:00:23;;;;;;;1999.90;999.90;;;;;;;19.14;100.00;101292.19;10457827;28;20409;-66
2023/09/13 04:05:26;;;;;;;1999.90;999.90;;;;;;;19.32;100.00;101276.50;10457484;28;20439;-66
2023/09/13 04:10:28;;;;;;;1999.90;999.90;;;;;;;19.31;100.00;101272.16;10457001;28;20052;-66
2023/09/13 04:15:31;;;;;;;1999.90;999.90;;;;;;;18.94;100.00;101276.16;10456851;28;20056;-66
2023/09/13 04:20:33;;;;;;;1999.90;999.90;;;;;;;19.06;100.00;101271.66;10457065;28;20567;-67
2023/09/13 04:25:37;;;;;;;1999.90;999.90;;;;;;;18.92;100.00;101279.94;10457672;28;20110;-66
2023/09/13 04:30:40;;;;;;;1999.90;999.90;;;;;;;18.82;100.00;101271.88;10456327;28;20045;-66
2023/09/13 04:35:43;;;;;;;1999.90;999.90;;;;;;;18.93;100.00;101281.63;10456198;28;20053;-66
2023/09/13 04:40:45;;;;;;;1999.90;999.90;;;;;;;18.66;100.00;101275.00;10456555;28;20045;-66
2023/09/13 04:45:47;;;;;;;1999.90;999.90;;;;;;;18.69;100.00;101256.19;10455890;28;20147;-66
2023/09/13 04:50:50;;;;;;;1999.90;999.90;;;;;;;18.62;100.00;101259.47;10456961;28;20060;-66
2023/09/13 04:55:52;;;;;;;1999.90;999.90;;;;;;;18.36;100.00;101270.47;10456857;28;20059;-65
2023/09/13 05:00:54;;;;;;;1999.90;999.90;;;;;;;18.34;100.00;101283.84;10455487;28;20045;-65
2023/09/13 05:05:57;;;;;;;1999.90;999.90;;;;;;;18.50;100.00;101269.31;10454720;28;20057;-65
2023/09/13 05:10:59;;;;;;;1999.90;999.90;;;;;;;18.34;100.00;101275.00;10455906;28;20581;-66
2023/09/13 05:16:02;;;;;;;1999.90;999.90;;;;;;;18.37;100.00;101299.50;10454678;28;20052;-66
2023/09/13 05:21:05;;;;;;;1999.90;999.90;;;;;;;18.44;100.00;101291.88;10456284;28;20077;-66
2023/09/13 05:26:07;;;;;;;1999.90;999.90;;;;;;;18.27;100.00;101303.00;10456281;28;20128;-66
2023/09/13 05:31:09;;;;;;;1999.90;999.90;;;;;;;18.34;100.00;101297.09;10455536;28;20425;-65
2023/09/13 05:36:13;;;;;;;1999.90;999.90;;;;;;;18.27;100.00;101303.84;10456096;28;20129;-66
2023/09/13 05:41:15;;;;;;;1999.90;999.90;;;;;;;18.23;100.00;101312.19;10455267;28;20053;-65
2023/09/13 05:46:17;;;;;;;1999.90;999.90;;;;;;;18.30;100.00;101310.72;10455866;28;20049;-66
2023/09/13 05:51:20;;;;;;;1999.90;999.90;;;;;;;18.38;100.00;101309.09;10453947;28;20045;-66
2023/09/13 05:56:22;;;;;;;1999.90;999.90;;;;;;;18.23;100.00;101328.91;10460149;28;20127;-66
2023/09/13 06:01:28;;;;;;;1999.90;999.90;;;;;;;18.25;100.00;101337.59;10463212;28;20095;-66
2023/09/13 06:06:31;;;;;;;1999.90;999.90;;;;;;;18.55;100.00;101336.88;10444700;28;20521;-67
2023/09/13 06:11:33;;;;;;;1999.90;999.90;;;;;;;18.67;100.00;101336.84;10462902;28;20045;-65
2023/09/13 06:16:36;;;;;;;1999.90;999.90;;;;;;;18.63;100.00;101341.56;10462603;28;20053;-64
2023/09/13 06:21:38;;;;;;;1999.90;999.90;;;;;;;18.73;100.00;101349.59;10461795;28;20045;-65
2023/09/13 06:26:40;;;;;;;1999.90;999.90;;;;;;;18.68;100.00;101357.09;10462265;28;20051;-65
2023/09/13 06:31:43;;;;;;;1999.90;999.90;;;;;;;18.63;100.00;101357.47;10462112;28;20047;-67
2023/09/13 06:37:04;;;;;;;1999.90;999.90;;;;;;;18.75;100.00;101371.53;10462109;28;20063;-65
2023/09/13 06:42:07;;;;;;;1999.90;999.90;;;;;;;18.63;100.00;101383.16;10460079;28;20577;-66
2023/09/13 06:47:30;;;;;;;1999.90;999.90;;;;;;;18.62;100.00;101382.28;10461564;28;20056;-66
2023/09/13 06:52:34;;;;;;;1999.90;999.90;;;;;;;18.72;100.00;101383.22;10444087;28;20057;-66
2023/09/13 06:57:54;;;;;;;1999.90;999.90;;;;;;;18.80;100.00;101390.53;10461024;28;20068;-66
2023/09/13 07:03:00;;;;;;;1999.90;999.90;;;;;;;18.81;100.00;101394.03;10460210;28;20057;-67
2023/09/13 07:08:06;;;;;;;1999.90;999.90;;;;;;;18.92;100.00;101402.81;10459914;28;20044;-66
2023/09/13 07:13:08;;;;;;;1999.90;999.90;;;;;;;18.88;100.00;101411.19;10460500;28;20071;-66
2023/09/13 07:18:11;;;;;;;1999.90;999.90;;;;;;;19.05;100.00;101396.50;10459153;28;20045;-67
2023/09/13 07:23:13;;;;;;;1999.90;999.90;;;;;;;19.22;100.00;101403.03;10459484;28;20122;-67
2023/09/13 07:28:16;;;;;;;1999.90;999.90;;;;;;;19.04;100.00;101411.56;10459373;28;20049;-67
2023/09/13 07:33:18;;;;;;;1999.90;999.90;;;;;;;17.32;100.00;101480.81;10459298;28;20076;-66
2023/09/13 07:38:21;;;;;;;1999.90;999.90;;;;;;;16.39;100.00;101507.78;10458234;28;20053;-67
2023/09/13 07:43:23;;;;;;;1999.90;999.90;;;;;;;15.87;100.00;101534.22;10459266;28;20087;-66
2023/09/13 07:48:27;;;;;;;1999.90;999.90;;;;;;;15.96;100.00;101538.88;10458635;28;20063;-66
2023/09/13 07:53:29;;;;;;;1999.90;999.90;;;;;;;15.70;100.00;101545.03;10458252;28;20052;-66
2023/09/13 07:58:32;;;;;;;1999.90;999.90;;;;;;;15.92;100.00;101547.09;10458573;28;20048;-66
2023/09/13 08:03:34;;;;;;;1999.90;999.90;;;;;;;16.24;100.00;101549.31;10458184;28;20095;-66
2023/09/13 08:08:37;;;;;;;1999.90;999.90;;;;;;;16.18;100.00;101549.75;10458309;28;20087;-66
2023/09/13 08:13:39;;;;;;;1999.90;999.90;;;;;;;16.63;100.00;101560.72;10456285;28;20409;-67
2023/09/13 08:18:42;;;;;;;1999.90;999.90;;;;;;;16.35;100.00;101558.19;10439577;28;20458;-67
2023/09/13 08:23:44;;;;;;;1999.90;999.90;;;;;;;16.56;100.00;101576.16;10457216;28;20498;-67
2023/09/13 08:28:47;;;;;;;1999.90;999.90;;;;;;;16.32;100.00;101576.94;10457633;28;20124;-67
2023/09/13 08:33:49;;;;;;;1999.90;999.90;;;;;;;17.28;100.00;101591.31;10456942;28;20049;-67
2023/09/13 08:38:51;;;;;;;1999.90;999.90;;;;;;;17.09;100.00;101599.75;10457226;28;20045;-67
2023/09/13 08:43:54;;;;;;;1999.90;999.90;;;;;;;17.34;100.00;101609.41;10455986;28;20107;-66
2023/09/13 08:48:57;;;;;;;1999.90;999.90;;;;;;;17.42;100.00;101609.69;10456394;28;20053;-67
2023/09/13 08:53:59;;;;;;;1999.90;999.90;;;;;;;16.98;100.00;101620.84;10455788;28;20055;-67
2023/09/13 08:59:02;;;;;;;1999.90;999.90;;;;;;;17.15;100.00;101636.38;10454933;28;20056;-67
2023/09/13 09:04:05;;;;;;;1999.90;999.90;;;;;;;16.65;100.00;101630.19;10454565;28;20065;-66
2023/09/13 09:09:08;;;;;;;1999.90;999.90;;;;;;;17.17;100.00;101646.84;10456585;28;20045;-66
2023/09/13 09:14:15;;;;;;;1999.90;999.90;;;;;;;16.85;100.00;101657.91;10454685;28;20055;-66
2023/09/13 09:19:17;;;;;;;1999.90;999.90;;;;;;;16.45;100.00;101658.00;10455133;28;20048;-67
2023/09/13 09:24:20;;;;;;;1999.90;999.90;;;;;;;16.38;100.00;101669.94;10455124;28;20106;-67
2023/09/13 09:29:34;;;;;;;1999.90;999.90;;;;;;;16.90;100.00;101667.19;10456557;28;20045;-67
2023/09/13 09:34:41;;;;;;;1999.90;999.90;;;;;;;18.22;100.00;101665.63;10463166;28;20045;-67
2023/09/13 09:39:44;;;;;;;1999.90;999.90;;;;;;;17.54;100.00;101657.41;10462350;28;20414;-67
2023/09/13 09:44:46;;;;;;;1999.90;999.90;;;;;;;19.83;100.00;101658.16;10462744;28;20045;-68
2023/09/13 09:49:52;;;;;;;1999.90;999.90;;;;;;;19.99;87.17;101657.75;10445901;28;20083;-67
2023/09/13 09:54:54;;;;;;;1999.90;999.90;;;;;;;20.95;85.75;101653.09;10463472;28;20053;-68
2023/09/13 09:59:59;;;;;;;1999.90;999.90;;;;;;;21.84;86.32;101643.44;10461604;28;20577;-67
2023/09/13 10:05:03;;;;;;;1999.90;999.90;;;;;;;22.41;80.39;101627.50;10461908;28;20056;-68
2023/09/13 10:10:08;;;;;;;1999.90;999.90;;;;;;;24.06;80.91;101654.19;10462933;28;20049;-68
2023/09/13 10:15:10;;;;;;;1999.90;999.90;;;;;;;23.74;74.79;101669.78;10462178;28;20053;-68
2023/09/13 10:20:14;;;;;;;1999.90;999.90;;;;;;;22.39;72.54;101674.81;10462511;28;20055;-68
2023/09/13 10:25:18;;;;;;;1999.90;999.90;;;;;;;22.42;71.35;101674.53;10462403;28;20075;-68
2023/09/13 10:30:27;;;;;;;1999.90;999.90;;;;;;;21.22;80.46;101680.94;10461058;28;20132;-68
2023/09/13 10:35:32;;;;;;;1999.90;999.90;;;;;;;20.10;79.07;101695.88;10462030;28;20048;-68
2023/09/13 10:41:02;;;;;;;1999.90;999.90;;;;;;;21.56;80.89;101698.41;10458689;28;20555;-68
2023/09/13 10:46:05;;;;;;;1999.90;999.90;;;;;;;22.11;81.16;101697.84;10458721;28;20135;-68
2023/09/13 10:51:08;;;;;;;1999.90;999.90;;;;;;;22.11;79.08;101708.50;10460174;28;20045;-68
2023/09/13 10:56:12;;;;;;;1999.90;999.90;;;;;;;21.26;83.80;101710.78;10442963;28;20512;-68
2023/09/13 11:01:14;;;;;;;1999.90;999.90;;;;;;;20.73;80.36;101714.50;10461054;28;20049;-68
2023/09/13 11:06:17;;;;;;;1999.90;999.90;;;;;;;20.18;88.75;101731.47;10458973;28;20079;-68
2023/09/13 11:11:22;;;;;;;1999.90;999.90;;;;;;;19.47;89.85;101744.38;10458795;28;20106;-68
2023/09/13 11:16:29;;;;;;;1999.90;999.90;;;;;;;19.20;86.76;101740.28;10465867;22;20055;-67
2023/09/13 11:21:52;;;;;;;1999.90;999.90;;;;;;;20.31;87.90;101757.03;10458958;28;20048;-67
2023/09/13 11:26:56;;;;;;;1999.90;999.90;;;;;;;20.57;81.26;101768.97;10441723;28;20556;-67
2023/09/13 11:32:01;;;;;;;1999.90;999.90;;;;;;;20.49;82.99;101771.44;10459112;28;20444;-67
2023/09/13 11:37:08;;;;;;;1999.90;999.90;;;;;;;20.13;84.01;101784.19;10441521;28;20056;-67
2023/09/13 11:42:11;;;;;;;1999.90;999.90;;;;;;;20.34;80.44;101794.00;10458136;28;20123;-67
2023/09/13 11:47:37;;;;;;;1999.90;999.90;;;;;;;20.48;83.32;101798.19;10458075;28;20049;-67
2023/09/13 11:53:09;;;;;;;1999.90;999.90;;;;;;;20.50;84.27;101815.69;10456823;28;20493;-67
2023/09/13 11:58:17;;;;;;;1999.90;999.90;;;;;;;20.08;85.08;101826.25;10458604;28;20056;-67
2023/09/13 12:03:41;;;;;;;1999.90;999.90;;;;;;;20.14;85.58;101835.53;10457515;28;20083;-67
2023/09/13 12:08:49;;;;;;;1999.90;999.90;;;;;;;19.49;86.26;101833.56;10458350;28;20053;-67
2023/09/13 12:13:53;;;;;;;1999.90;999.90;;;;;;;19.73;83.70;101839.69;10456347;28;20057;-67
2023/09/13 12:19:13;;;;;;;1999.90;999.90;;;;;;;19.45;84.11;101845.41;10457171;28;20413;-68
2023/09/13 12:24:19;;;;;;;1999.90;999.90;;;;;;;19.60;83.15;101840.69;10457771;28;20053;-68
2023/09/13 12:29:22;;;;;;;1999.90;999.90;;;;;;;20.16;85.67;101845.09;10456471;28;20045;-68
2023/09/13 12:34:24;;;;;;;1999.90;999.90;;;;;;;19.37;77.73;101846.97;10455624;28;20482;-68
2023/09/13 12:39:27;;;;;;;1999.90;999.90;;;;;;;21.42;75.25;101864.78;10455439;28;20397;-68
2023/09/13 12:44:29;;;;;;;1999.90;999.90;;;;;;;22.57;70.43;101848.38;10457060;28;20083;-68
2023/09/13 12:49:32;;;;;;;1999.90;999.90;;;;;;;22.70;68.23;101853.44;10456309;28;20045;-69
2023/09/13 12:54:36;;;;;;;1999.90;999.90;;;;;;;23.68;66.57;101851.31;10455782;28;20077;-69
2023/09/13 12:59:46;;;;;;;1999.90;999.90;;;;;;;24.66;65.36;101854.19;10455508;28;20049;-69
2023/09/13 13:04:49;;;;;;;1999.90;999.90;;;;;;;23.09;65.57;101866.75;10437748;28;20132;-69
2023/09/13 13:09:52;;;;;;;1999.90;999.90;;;;;;;21.43;73.98;101879.78;10456936;28;20040;-69
2023/09/13 13:14:55;;;;;;;1999.90;999.90;;;;;;;20.80;77.79;101887.81;10455443;28;20057;-69
2023/09/13 13:19:57;;;;;;;1999.90;999.90;;;;;;;20.27;80.21;101891.22;10454410;28;20053;-69
2023/09/13 13:25:00;;;;;;;1999.90;999.90;;;;;;;19.39;85.80;101914.06;10456315;28;20053;-69
2023/09/13 13:30:04;;;;;;;1999.90;999.90;;;;;;;19.44;88.93;101907.44;10455591;28;20448;-69
2023/09/13 13:35:07;;;;;;;1999.90;999.90;;;;;;;19.35;90.42;101912.59;10456144;28;20057;-69
2023/09/13 13:40:10;;;;;;;1999.90;999.90;;;;;;;19.46;90.55;101908.16;10455351;28;20486;-69
2023/09/13 13:45:12;;;;;;;1999.90;999.90;;;;;;;19.38;89.23;101915.84;10456168;28;20128;-69
2023/09/13 13:50:14;;;;;;;1999.90;999.90;;;;;;;18.68;91.10;101914.06;10455153;28;20391;-69
2023/09/13 13:55:17;;;;;;;1999.90;999.90;;;;;;;19.20;91.50;101919.94;10455066;28;20079;-69
2023/09/13 14:00:19;;;;;;;1999.90;999.90;;;;;;;18.78;92.95;101933.66;10455526;28;20041;-69
2023/09/13 14:05:22;;;;;;;1999.90;999.90;;;;;;;18.12;92.31;101951.69;10454578;28;20132;-69
2023/09/13 14:10:24;;;;;;;1999.90;999.90;;;;;;;18.13;91.16;101951.56;10455629;28;20045;-69
2023/09/13 14:15:28;;;;;;;1999.90;999.90;;;;;;;18.22;89.38;101949.22;10454892;28;20053;-69
2023/09/13 14:20:30;;;;;;;1999.90;999.90;;;;;;;18.40;92.42;101949.72;10461498;28;20049;-69
2023/09/13 14:25:33;;;;;;;1999.90;999.90;;;;;;;18.23;91.34;101943.81;10460655;28;20052;-69
2023/09/13 14:30:35;;;;;;;1999.90;999.90;;;;;;;19.26;85.25;101935.41;10462418;28;20048;-69
2023/09/13 14:35:37;;;;;;;1999.90;999.90;;;;;;;19.55;85.88;101943.81;10461458;28;20486;-69
2023/09/13 14:40:41;;;;;;;1999.90;999.90;;;;;;;20.56;80.31;101934.03;10461170;28;20383;-69
2023/09/13 14:45:43;;;;;;;1999.90;999.90;;;;;;;20.27;77.36;101926.63;10459906;28;20092;-69
2023/09/13 14:50:46;;;;;;;1999.90;999.90;;;;;;;20.11;80.21;101928.84;10459739;28;20421;-69
2023/09/13 14:55:55;;;;;;;1999.90;999.90;;;;;;;21.64;71.99;101914.41;10461325;28;20132;-69
2023/09/13 15:00:57;;;;;;;1999.90;999.90;;;;;;;23.82;68.52;101923.06;10459360;28;20485;-69
2023/09/13 15:06:00;;;;;;;1999.90;999.90;;;;;;;22.69;68.07;101913.97;10461018;28;20048;-69
2023/09/13 15:11:03;;;;;;;1999.90;999.90;;;;;;;24.46;61.51;101918.59;10460156;28;20507;-69
2023/09/13 15:16:07;;;;;;;1999.90;999.90;;;;;;;24.60;63.21;101925.28;10458751;28;20067;-69
2023/09/13 15:21:10;;;;;;;1999.90;999.90;;;;;;;23.56;63.85;101926.34;10457607;28;20482;-69
2023/09/13 15:26:12;;;;;;;1999.90;999.90;;;;;;;23.81;64.06;101924.00;10457837;28;20053;-69
2023/09/13 15:31:15;;;;;;;1999.90;999.90;;;;;;;21.38;66.41;101928.09;10457640;28;20075;-69
2023/09/13 15:36:17;;;;;;;1999.90;999.90;;;;;;;22.44;63.49;101926.88;10457740;28;20049;-69
2023/09/13 15:41:20;;;;;;;1999.90;999.90;;;;;;;23.66;63.73;101923.66;10439949;28;20053;-69
2023/09/13 15:46:23;;;;;;;1999.90;999.90;;;;;;;23.11;65.15;101924.34;10457478;28;20052;-69
2023/09/13 15:51:26;;;;;;;1999.90;999.90;;;;;;;22.69;62.63;101926.47;10456677;28;20529;-69
2023/09/13 15:56:28;;;;;;;1999.90;999.90;;;;;;;21.77;66.15;101930.16;10455945;28;20052;-69
2023/09/13 16:01:30;;;;;;;1999.90;999.90;;;;;;;20.80;67.82;101933.88;10456228;28;20128;-69
2023/09/13 16:06:36;;;;;;;1999.90;999.90;;;;;;;21.17;68.99;101932.63;10456156;28;20555;-69
2023/09/13 16:11:38;;;;;;;1999.90;999.90;;;;;;;20.84;71.93;101934.47;10455067;28;20482;-69
2023/09/13 16:16:41;;;;;;;1999.90;999.90;;;;;;;19.68;77.66;101939.19;10412773;28;1239501;-69
2023/09/13 16:21:43;;;;;;;1999.90;999.90;;;;;;;19.11;80.22;101934.75;10457234;28;20488;-69
2023/09/13 16:26:46;;;;;;;1999.90;999.90;;;;;;;18.87;84.65;101934.81;10457808;28;20049;-69
2023/09/13 16:31:51;;;;;;;1999.90;999.90;;;;;;;18.53;90.17;101943.41;10457629;28;20049;-69
2023/09/13 16:36:53;;;;;;;1999.90;999.90;;;;;;;18.28;95.66;101954.09;10457522;28;20057;-68
2023/09/13 16:41:56;;;;;;;1999.90;999.90;;;;;;;18.23;97.52;101950.94;10456374;28;20107;-68
2023/09/13 16:46:58;;;;;;;1999.90;999.90;;;;;;;17.88;100.00;101959.56;10457192;28;20055;-68
2023/09/13 16:52:00;;;;;;;1999.90;999.90;;;;;;;17.90;100.00;101969.09;10457113;28;20127;-68
2023/09/13 16:57:03;;;;;;;1999.90;999.90;;;;;;;17.82;100.00;101969.63;10456965;28;20053;-68
2023/09/13 17:02:06;;;;;;;1999.90;999.90;;;;;;;17.90;100.00;101968.25;10456183;28;20051;-68
2023/09/13 17:07:10;;;;;;;1999.90;999.90;;;;;;;17.62;100.00;101973.63;10456733;28;20045;-68
2023/09/13 17:12:13;;;;;;;1999.90;999.90;;;;;;;17.55;100.00;101980.31;10456190;28;20048;-68
2023/09/13 17:17:22;;;;;;;1999.90;999.90;;;;;;;17.16;100.00;101981.19;10456185;28;20083;-68
2023/09/13 17:22:24;;;;;;;1999.90;999.90;;;;;;;17.11;100.00;101989.41;10455951;28;20041;-68
2023/09/13 17:27:26;;;;;;;1999.90;999.90;;;;;;;17.29;100.00;101992.66;10455739;28;20390;-68
2023/09/13 17:32:29;;;;;;;1999.90;999.90;;;;;;;17.08;100.00;102001.06;10456224;28;20052;-68
2023/09/13 17:37:31;;;;;;;1999.90;999.90;;;;;;;16.95;100.00;101996.69;10456161;28;20057;-68
2023/09/13 17:42:33;;;;;;;1999.90;999.90;;;;;;;17.41;100.00;101999.75;10455341;28;20123;-68
2023/09/13 17:47:36;;;;;;;1999.90;999.90;;;;;;;16.93;100.00;102002.09;10455983;28;20061;-68
2023/09/13 17:52:38;;;;;;;1999.90;999.90;;;;;;;16.85;100.00;102009.66;10459689;28;20044;-68
2023/09/13 17:57:41;;;;;;;1999.90;999.90;;;;;;;16.46;100.00;102017.38;10462982;28;20481;-68
2023/09/13 18:02:43;;;;;;;1999.90;999.90;;;;;;;16.33;100.00;102019.91;10462624;28;20456;-68
2023/09/13 18:07:46;;;;;;;1999.90;999.90;;;;;;;16.29;100.00;102036.06;10463251;28;20052;-68
2023/09/13 18:12:48;;;;;;;1999.90;999.90;;;;;;;16.04;100.00;102048.16;10463062;28;20120;-68
2023/09/13 18:17:51;;;;;;;1999.90;999.90;;;;;;;15.91;100.00;102052.47;10461230;28;20132;-68
2023/09/13 18:22:59;;;;;;;1999.90;999.90;;;;;;;15.89;100.00;102059.66;10462046;28;20382;-68
2023/09/13 18:28:02;;;;;;;1999.90;999.90;;;;;;;15.78;100.00;102058.50;10460633;28;20409;-68
2023/09/13 18:33:05;;;;;;;1999.90;999.90;;;;;;;15.80;100.00;102066.28;10462277;28;20049;-68
2023/09/13 18:38:07;;;;;;;1999.90;999.90;;;;;;;15.62;100.00;102081.41;10462044;28;20056;-68
2023/09/13 18:43:10;;;;;;;1999.90;999.90;;;;;;;15.57;100.00;102086.13;10461278;28;20049;-67
2023/09/13 18:48:12;;;;;;;1999.90;999.90;;;;;;;15.45;100.00;102087.69;10461208;28;20053;-67
2023/09/13 18:53:14;;;;;;;1999.90;999.90;;;;;;;15.41;100.00;102096.69;10460890;28;20413;-68
2023/09/13 18:58:17;;;;;;;1999.90;999.90;;;;;;;15.40;100.00;102089.72;10460743;28;20436;-67
2023/09/13 19:03:19;;;;;;;1999.90;999.90;;;;;;;15.49;100.00;102101.53;10458187;28;20045;-68
2023/09/13 19:08:22;;;;;;;1999.90;999.90;;;;;;;15.19;100.00;102113.72;10460310;28;20485;-68
2023/09/13 19:13:24;;;;;;;1999.90;999.90;;;;;;;15.13;100.00;102119.38;10459645;28;20071;-68
2023/09/13 19:18:27;;;;;;;1999.90;999.90;;;;;;;15.20;100.00;102133.91;10459962;28;20067;-68
2023/09/13 19:23:30;;;;;;;1999.90;999.90;;;;;;;15.21;100.00;102134.75;10459603;28;20407;-68
2023/09/13 19:28:33;;;;;;;1999.90;999.90;;;;;;;15.03;100.00;102147.19;10459526;28;20056;-68
2023/09/13 19:33:37;;;;;;;1999.90;999.90;;;;;;;15.04;100.00;102143.59;10458713;28;20053;-68
2023/09/13 19:38:39;;;;;;;1999.90;999.90;;;;;;;15.20;100.00;102135.72;10459672;28;20067;-67
2023/09/13 19:43:43;;;;;;;1999.90;999.90;;;;;;;15.17;100.00;102154.34;10457666;28;20484;-68
2023/09/13 19:48:45;;;;;;;1999.90;999.90;;;;;;;15.07;100.00;102147.88;10459344;28;20409;-68
2023/09/13 19:53:48;;;;;;;1999.90;999.90;;;;;;;15.11;100.00;102152.03;10459036;28;20401;-68
2023/09/13 19:58:51;;;;;;;1999.90;999.90;;;;;;;14.97;100.00;102164.19;10458315;28;20545;-68
2023/09/13 20:03:54;;;;;;;1999.90;999.90;;;;;;;14.66;100.00;102168.47;10458820;28;20119;-68
2023/09/13 20:08:58;;;;;;;1999.90;999.90;;;;;;;14.53;100.00;102177.09;10458000;28;20102;-68
2023/09/13 20:14:01;;;;;;;1999.90;999.90;;;;;;;14.31;100.00;102180.81;10457415;28;20436;-68
2023/09/13 20:19:03;;;;;;;1999.90;999.90;;;;;;;14.38;100.00;102182.19;10456007;28;20057;-68
2023/09/13 20:24:06;;;;;;;1999.90;999.90;;;;;;;14.35;100.00;102182.34;10456186;28;20478;-68
2023/09/13 20:29:08;;;;;;;1999.90;999.90;;;;;;;14.39;100.00;102180.41;10457786;28;20049;-68
2023/09/13 20:34:11;;;;;;;1999.90;999.90;;;;;;;14.51;100.00;102179.78;10457163;28;20504;-67
2023/09/13 20:39:13;;;;;;;1999.90;999.90;;;;;;;14.44;100.00;102179.25;10457488;28;20049;-67
2023/09/13 20:44:16;;;;;;;1999.90;999.90;;;;;;;14.37;100.00;102177.00;10456690;28;20493;-68
2023/09/13 20:49:18;;;;;;;1999.90;999.90;;;;;;;14.54;100.00;102184.03;10455297;28;20486;-67
2023/09/13 20:54:22;;;;;;;1999.90;999.90;;;;;;;14.43;100.00;102179.34;10456380;28;20406;-67
2023/09/13 20:59:26;;;;;;;1999.90;999.90;;;;;;;14.34;100.00;102177.16;10456271;28;20383;-68
2023/09/13 21:04:29;;;;;;;1999.90;999.90;;;;;;;14.16;100.00;102187.72;10455655;28;20055;-68
2023/09/13 21:09:31;;;;;;;1999.90;999.90;;;;;;;14.11;100.00;102195.84;10456154;28;20153;-67
2023/09/13 21:14:34;;;;;;;1999.90;999.90;;;;;;;13.98;100.00;102194.75;10456648;28;20049;-68
2023/09/13 21:19:37;;;;;;;1999.90;999.90;;;;;;;13.91;100.00;102188.94;10455638;28;20535;-67
2023/09/13 21:24:40;;;;;;;1999.90;999.90;;;;;;;13.85;100.00;102198.91;10456724;28;20064;-67
2023/09/13 21:29:42;;;;;;;1999.90;999.90;;;;;;;13.82;100.00;102215.72;10464131;28;20501;-68
2023/09/13 21:34:45;;;;;;;1999.90;999.90;;;;;;;13.60;100.00;102212.41;10464141;28;20087;-68
2023/09/13 21:40:03;;;;;;;1999.90;999.90;;;;;;;13.62;100.00;102211.41;10464375;28;20067;-68
2023/09/13 21:45:06;;;;;;;1999.90;999.90;;;;;;;13.56;100.00;102212.53;10463041;28;20084;-68
2023/09/13 21:50:09;;;;;;;1999.90;999.90;;;;;;;13.46;100.00;102213.06;10463946;28;20045;-68